createdAt,value
2017-11-07T00:01:23.028Z,4.60
2017-11-07T00:03:50.589Z,4.60
2017-11-07T00:06:18.858Z,4.50
2017-11-07T00:08:47.093Z,4.40
2017-11-07T00:11:14.572Z,4.40
2017-11-07T00:13:42.028Z,4.40
2017-11-07T00:16:09.487Z,4.40
2017-11-07T00:18:36.969Z,4.30
2017-11-07T00:21:04.526Z,4.30
2017-11-07T00:23:32.773Z,4.30
2017-11-07T00:26:00.330Z,4.20
2017-11-07T00:28:28.584Z,4.20
2017-11-07T00:30:56.813Z,4.20
2017-11-07T00:33:24.300Z,4.20
2017-11-07T00:35:52.529Z,4.20
2017-11-07T00:38:20.093Z,4.20
2017-11-07T00:40:48.338Z,4.10
2017-11-07T00:43:15.807Z,4.10
2017-11-07T00:45:44.029Z,4.10
2017-11-07T00:48:11.524Z,4.10
2017-11-07T00:50:38.981Z,4.10
2017-11-07T00:53:06.438Z,4.00
2017-11-07T00:55:33.909Z,4.00
2017-11-07T00:58:01.465Z,4.00
2017-11-07T01:00:29.707Z,4.00
2017-11-07T01:02:57.220Z,4.00
2017-11-07T01:05:24.708Z,4.00
2017-11-07T01:07:52.973Z,4.00
2017-11-07T01:10:21.227Z,3.90
2017-11-07T01:12:49.456Z,3.90
2017-11-07T01:15:17.032Z,3.90
2017-11-07T01:17:45.252Z,3.90
2017-11-07T01:20:12.716Z,3.90
2017-11-07T01:22:40.276Z,3.90
2017-11-07T01:25:08.541Z,3.90
2017-11-07T01:27:36.796Z,3.80
2017-11-07T01:30:04.344Z,3.80
2017-11-07T01:32:31.888Z,3.80
2017-11-07T01:35:00.116Z,3.70
2017-11-07T01:37:27.568Z,3.70
2017-11-07T01:39:55.126Z,3.70
2017-11-07T01:42:22.678Z,3.70
2017-11-07T01:44:50.905Z,3.60
2017-11-07T01:47:18.564Z,3.60
2017-11-07T01:49:46.033Z,3.60
2017-11-07T01:52:14.282Z,3.50
2017-11-07T01:54:42.541Z,3.50
2017-11-07T01:57:10.800Z,3.40
2017-11-07T01:59:39.032Z,3.40
2017-11-07T02:02:06.604Z,3.40
2017-11-07T02:04:34.144Z,3.40
2017-11-07T02:07:01.695Z,3.40
2017-11-07T02:09:29.958Z,3.30
2017-11-07T02:11:58.221Z,3.30
2017-11-07T02:14:26.473Z,3.20
2017-11-07T02:16:54.733Z,3.20
2017-11-07T02:19:23.198Z,3.20
2017-11-07T02:21:51.461Z,3.10
2017-11-07T02:24:19.713Z,3.10
2017-11-07T02:26:47.205Z,3.10
2017-11-07T02:29:14.656Z,3.10
2017-11-07T02:31:42.121Z,3.10
2017-11-07T02:34:09.689Z,3.20
2017-11-07T02:36:37.913Z,3.20
2017-11-07T02:39:05.392Z,3.20
2017-11-07T02:41:33.649Z,3.20
2017-11-07T02:44:01.924Z,3.30
2017-11-07T02:46:30.175Z,3.40
2017-11-07T02:48:58.393Z,3.40
2017-11-07T02:51:25.853Z,3.40
2017-11-07T02:53:53.468Z,3.40
2017-11-07T02:56:20.925Z,3.40
2017-11-07T02:58:48.401Z,3.50
2017-11-07T03:01:16.713Z,3.50
2017-11-07T03:03:44.597Z,3.40
2017-11-07T03:06:12.152Z,3.40
2017-11-07T03:08:40.513Z,3.50
2017-11-07T03:11:08.776Z,3.50
2017-11-07T03:13:37.037Z,3.50
2017-11-07T03:16:05.302Z,3.50
2017-11-07T03:18:33.560Z,3.40
2017-11-07T03:21:01.921Z,3.40
2017-11-07T03:23:29.481Z,3.40
2017-11-07T03:25:57.700Z,3.50
2017-11-07T03:28:25.164Z,3.40
2017-11-07T03:30:53.418Z,3.50
2017-11-07T03:33:20.881Z,3.40
2017-11-07T03:35:49.124Z,3.40
2017-11-07T03:38:17.370Z,3.40
2017-11-07T03:40:44.932Z,3.40
2017-11-07T03:43:13.156Z,3.40
2017-11-07T03:45:40.733Z,3.40
2017-11-07T03:48:08.957Z,3.40
2017-11-07T03:50:36.416Z,3.40
2017-11-07T03:53:03.928Z,3.40
2017-11-07T03:55:31.380Z,3.40
2017-11-07T03:57:58.840Z,3.30
2017-11-07T04:00:26.409Z,3.30
2017-11-07T04:02:54.652Z,3.30
2017-11-07T04:05:22.116Z,3.30
2017-11-07T04:07:50.420Z,3.30
2017-11-07T04:10:17.912Z,3.30
2017-11-07T04:12:46.173Z,3.30
2017-11-07T04:15:14.396Z,3.20
2017-11-07T04:17:42.076Z,3.20
2017-11-07T04:20:10.337Z,3.20
2017-11-07T04:22:38.597Z,3.20
2017-11-07T04:25:06.837Z,3.10
2017-11-07T04:27:35.120Z,3.00
2017-11-07T04:30:03.377Z,2.90
2017-11-07T04:32:31.612Z,2.90
2017-11-07T04:34:59.073Z,2.80
2017-11-07T04:37:26.549Z,2.80
2017-11-07T04:39:54.009Z,2.80
2017-11-07T04:42:21.464Z,2.70
2017-11-07T04:44:48.929Z,2.70
2017-11-07T04:47:16.384Z,2.60
2017-11-07T04:49:44.649Z,2.50
2017-11-07T04:52:12.889Z,2.40
2017-11-07T04:54:40.449Z,2.40
2017-11-07T04:57:08.708Z,2.40
2017-11-07T04:59:36.944Z,2.40
2017-11-07T05:02:04.407Z,2.40
2017-11-07T05:04:31.960Z,2.30
2017-11-07T05:07:00.185Z,2.30
2017-11-07T05:09:27.657Z,2.30
2017-11-07T05:11:55.896Z,2.20
2017-11-07T05:14:23.461Z,2.20
2017-11-07T05:16:51.688Z,2.20
2017-11-07T05:19:19.149Z,2.10
2017-11-07T05:21:46.613Z,2.20
2017-11-07T05:24:14.842Z,2.20
2017-11-07T05:26:42.567Z,2.20
2017-11-07T05:29:10.021Z,2.20
2017-11-07T05:31:37.493Z,2.20
2017-11-07T05:34:05.749Z,2.20
2017-11-07T05:36:33.229Z,2.20
2017-11-07T05:39:00.693Z,2.20
2017-11-07T05:41:28.177Z,2.20
2017-11-07T05:43:56.441Z,2.20
2017-11-07T05:46:24.700Z,2.20
2017-11-07T05:48:52.964Z,2.10
2017-11-07T05:51:21.196Z,2.10
2017-11-07T05:53:48.761Z,2.00
2017-11-07T05:56:17.230Z,2.00
2017-11-07T05:58:45.485Z,2.00
2017-11-07T06:01:13.749Z,2.00
2017-11-07T06:03:42.018Z,2.00
2017-11-07T06:06:10.249Z,2.00
2017-11-07T06:08:37.721Z,1.90
2017-11-07T06:11:05.944Z,2.00
2017-11-07T06:13:33.497Z,1.90
2017-11-07T06:16:01.061Z,1.90
2017-11-07T06:18:29.372Z,1.80
2017-11-07T06:20:56.820Z,1.80
2017-11-07T06:23:24.308Z,1.80
2017-11-07T06:25:52.569Z,1.80
2017-11-07T06:28:20.797Z,1.80
2017-11-07T06:30:48.278Z,1.80
2017-11-07T06:33:16.573Z,1.90
2017-11-07T06:35:44.058Z,1.90
2017-11-07T06:38:11.520Z,1.90
2017-11-07T06:40:39.745Z,2.00
2017-11-07T06:43:07.221Z,2.00
2017-11-07T06:45:35.484Z,2.00
2017-11-07T06:48:03.729Z,2.00
2017-11-07T06:50:31.204Z,2.00
2017-11-07T06:52:58.661Z,2.00
2017-11-07T06:55:26.136Z,2.00
2017-11-07T06:57:53.804Z,2.10
2017-11-07T07:00:22.032Z,2.00
2017-11-07T07:02:49.509Z,2.00
2017-11-07T07:05:17.757Z,2.10
2017-11-07T07:07:45.980Z,2.00
2017-11-07T07:10:13.460Z,2.00
2017-11-07T07:12:41.696Z,2.10
2017-11-07T07:15:09.164Z,2.10
2017-11-07T07:17:37.412Z,2.20
2017-11-07T07:20:04.971Z,2.20
2017-11-07T07:22:32.445Z,2.20
2017-11-07T07:24:59.958Z,2.30
2017-11-07T07:27:28.183Z,2.30
2017-11-07T07:29:55.771Z,2.30
2017-11-07T07:32:23.993Z,2.40
2017-11-07T07:34:51.461Z,2.40
2017-11-07T07:37:19.705Z,2.50
2017-11-07T07:39:47.161Z,2.50
2017-11-07T07:42:15.384Z,2.60
2017-11-07T07:44:42.856Z,2.60
2017-11-07T07:47:11.091Z,2.70
2017-11-07T07:49:38.576Z,2.60
2017-11-07T07:52:06.797Z,2.80
2017-11-07T07:54:34.266Z,2.70
2017-11-07T07:57:02.504Z,2.90
2017-11-07T07:59:30.064Z,2.80
2017-11-07T08:01:58.333Z,3.00
2017-11-07T08:04:26.565Z,3.10
2017-11-07T08:06:54.033Z,3.00
2017-11-07T08:09:22.281Z,3.20
2017-11-07T08:11:49.741Z,3.20
2017-11-07T08:14:17.966Z,3.40
2017-11-07T08:16:45.436Z,3.40
2017-11-07T08:19:13.668Z,3.60
2017-11-07T08:21:41.141Z,3.50
2017-11-07T08:24:09.364Z,3.80
2017-11-07T08:26:36.832Z,3.80
2017-11-07T08:29:05.129Z,3.90
2017-11-07T08:31:32.596Z,3.90
2017-11-07T08:34:00.065Z,4.00
2017-11-07T08:36:27.541Z,4.10
2017-11-07T08:38:54.996Z,4.10
2017-11-07T08:41:22.517Z,4.20
2017-11-07T08:43:50.752Z,4.40
2017-11-07T08:46:18.310Z,4.40
2017-11-07T08:48:46.568Z,4.60
2017-11-07T08:51:14.791Z,4.70
2017-11-07T08:53:42.276Z,4.70
2017-11-07T08:56:10.511Z,5.00
2017-11-07T08:58:37.995Z,5.00
2017-11-07T09:01:05.515Z,5.20
2017-11-07T09:03:33.800Z,5.50
2017-11-07T09:06:01.269Z,5.50
2017-11-07T09:08:28.761Z,5.50
2017-11-07T09:10:57.027Z,5.60
2017-11-07T09:13:25.280Z,5.60
2017-11-07T09:15:53.521Z,5.50
2017-11-07T09:18:20.976Z,5.50
2017-11-07T09:20:49.205Z,5.90
2017-11-07T09:23:16.785Z,5.90
2017-11-07T09:25:45.009Z,6.20
2017-11-07T09:28:12.490Z,6.20
2017-11-07T09:30:40.737Z,6.30
2017-11-07T09:33:08.197Z,6.30
2017-11-07T09:35:36.448Z,6.50
2017-11-07T09:38:04.713Z,6.60
2017-11-07T09:40:32.948Z,6.60
2017-11-07T09:43:00.508Z,6.60
2017-11-07T09:45:28.781Z,6.60
2017-11-07T09:47:57.033Z,6.70
2017-11-07T09:50:25.253Z,6.80
2017-11-07T09:52:52.833Z,6.80
2017-11-07T09:55:21.094Z,7.20
2017-11-07T09:57:49.320Z,7.20
2017-11-07T10:00:16.792Z,7.20
2017-11-07T10:02:45.052Z,7.30
2017-11-07T10:05:13.292Z,7.20
2017-11-07T10:07:40.744Z,7.20
2017-11-07T10:10:08.296Z,7.20
2017-11-07T10:12:36.528Z,7.30
2017-11-07T10:15:03.990Z,7.30
2017-11-07T10:17:31.472Z,7.40
2017-11-07T10:19:58.937Z,7.50
2017-11-07T10:22:26.392Z,7.60
2017-11-07T10:24:53.869Z,7.70
2017-11-07T10:27:22.097Z,7.80
2017-11-07T10:29:49.572Z,7.80
2017-11-07T10:32:17.832Z,7.70
2017-11-07T10:34:46.057Z,7.60
2017-11-07T10:37:13.633Z,7.60
2017-11-07T10:39:41.889Z,7.80
2017-11-07T10:42:09.354Z,7.80
2017-11-07T10:44:37.597Z,8.20
2017-11-07T10:47:05.856Z,8.30
2017-11-07T10:49:34.105Z,8.30
2017-11-07T10:52:01.661Z,8.20
2017-11-07T10:54:29.888Z,8.20
2017-11-07T10:56:57.364Z,8.20
2017-11-07T10:59:25.631Z,8.00
2017-11-07T11:01:54.081Z,8.00
2017-11-07T11:04:21.544Z,8.00
2017-11-07T11:06:49.789Z,8.20
2017-11-07T11:09:18.149Z,8.40
2017-11-07T11:11:46.368Z,8.50
2017-11-07T11:14:13.833Z,8.50
2017-11-07T11:16:41.392Z,8.80
2017-11-07T11:19:09.657Z,10.30
2017-11-07T11:21:37.889Z,11.30
2017-11-07T11:24:05.457Z,11.30
2017-11-07T11:26:33.701Z,14.10
2017-11-07T11:29:01.365Z,14.10
2017-11-07T11:31:29.596Z,15.80
2017-11-07T11:33:57.068Z,15.80
2017-11-07T11:36:25.328Z,17.20
2017-11-07T11:38:53.560Z,17.70
2017-11-07T11:41:21.146Z,17.60
2017-11-07T11:43:49.385Z,17.40
2017-11-07T11:46:16.937Z,17.40
2017-11-07T11:48:45.175Z,15.50
2017-11-07T11:51:13.429Z,14.70
2017-11-07T11:53:40.897Z,14.60
2017-11-07T11:56:09.161Z,13.10
2017-11-07T11:58:37.417Z,12.60
2017-11-07T12:01:05.657Z,12.20
2017-11-07T12:03:33.140Z,12.20
2017-11-07T12:06:00.669Z,11.90
2017-11-07T12:08:28.924Z,11.60
2017-11-07T12:10:57.185Z,11.30
2017-11-07T12:13:25.544Z,11.00
2017-11-07T12:15:53.807Z,10.90
2017-11-07T12:18:22.035Z,10.70
2017-11-07T12:20:49.508Z,10.70
2017-11-07T12:23:17.773Z,10.40
2017-11-07T12:25:46.229Z,10.50
2017-11-07T12:28:14.497Z,10.60
2017-11-07T12:30:42.804Z,10.70
2017-11-07T12:33:10.501Z,10.70
2017-11-07T12:35:38.729Z,10.80
2017-11-07T12:38:06.301Z,10.80
2017-11-07T12:40:34.674Z,10.80
2017-11-07T12:43:03.005Z,10.70
2017-11-07T12:45:30.585Z,10.70
2017-11-07T12:47:58.944Z,10.80
2017-11-07T12:50:38.881Z,10.70
2017-11-07T12:53:06.513Z,10.70
2017-11-07T12:55:34.773Z,10.60
2017-11-07T12:58:03.137Z,10.70
2017-11-07T13:00:31.376Z,10.50
2017-11-07T13:02:58.844Z,10.50
2017-11-07T13:05:27.084Z,10.70
2017-11-07T13:07:54.641Z,10.70
2017-11-07T13:10:22.901Z,10.60
2017-11-07T13:12:51.161Z,10.60
2017-11-07T13:15:19.423Z,10.60
2017-11-07T13:17:47.665Z,10.70
2017-11-07T13:20:15.220Z,10.70
2017-11-07T13:22:43.477Z,10.80
2017-11-07T13:25:10.944Z,10.80
2017-11-07T13:27:39.272Z,10.90
2017-11-07T13:30:06.760Z,10.90
2017-11-07T13:32:34.229Z,10.90
2017-11-07T13:35:01.730Z,10.90
2017-11-07T13:37:30.180Z,10.80
2017-11-07T13:39:58.412Z,10.80
2017-11-07T13:42:25.881Z,10.80
2017-11-07T13:44:54.145Z,10.50
2017-11-07T13:47:22.376Z,10.40
2017-11-07T13:49:49.845Z,10.40
2017-11-07T13:52:18.104Z,10.30
2017-11-07T13:54:46.414Z,10.30
2017-11-07T13:57:13.905Z,10.20
2017-11-07T13:59:42.161Z,10.20
2017-11-07T14:02:10.396Z,10.20
2017-11-07T14:04:37.868Z,10.10
2017-11-07T14:07:06.132Z,10.00
2017-11-07T14:09:34.366Z,9.90
2017-11-07T14:12:01.934Z,9.90
2017-11-07T14:14:30.271Z,9.90
2017-11-07T14:16:57.837Z,9.90
2017-11-07T14:19:26.097Z,9.90
2017-11-07T14:21:54.457Z,9.90
2017-11-07T14:24:22.694Z,9.90
2017-11-07T14:26:50.161Z,9.80
2017-11-07T14:29:18.416Z,9.90
2017-11-07T14:31:45.873Z,9.80
2017-11-07T14:34:14.125Z,10.00
2017-11-07T14:36:42.360Z,9.90
2017-11-07T14:39:09.827Z,9.90
2017-11-07T14:41:38.065Z,9.90
2017-11-07T14:44:05.626Z,9.90
2017-11-07T14:46:33.092Z,9.90
2017-11-07T14:49:00.550Z,9.80
2017-11-07T14:51:28.033Z,9.70
2017-11-07T14:53:55.604Z,9.70
2017-11-07T14:56:23.830Z,9.70
2017-11-07T14:58:51.503Z,9.70
2017-11-07T15:01:19.765Z,9.70
2017-11-07T15:03:48.077Z,9.70
2017-11-07T15:06:15.576Z,9.60
2017-11-07T15:08:43.801Z,9.60
2017-11-07T15:11:12.092Z,9.50
2017-11-07T15:13:40.329Z,9.50
2017-11-07T15:16:07.889Z,9.40
2017-11-07T15:18:36.157Z,9.50
2017-11-07T15:21:04.388Z,9.50
2017-11-07T15:23:31.852Z,9.50
2017-11-07T15:26:00.115Z,9.40
2017-11-07T15:28:28.341Z,9.40
2017-11-07T15:30:55.801Z,9.40
2017-11-07T15:33:23.361Z,9.30
2017-11-07T15:35:51.616Z,9.30
2017-11-07T15:38:19.840Z,9.20
2017-11-07T15:40:47.320Z,9.30
2017-11-07T15:43:15.631Z,9.20
2017-11-07T15:45:43.122Z,9.20
2017-11-07T15:48:11.400Z,9.20
2017-11-07T15:50:38.893Z,9.20
2017-11-07T15:53:06.351Z,9.20
2017-11-07T15:55:33.916Z,9.10
2017-11-07T15:58:02.164Z,9.20
2017-11-07T16:00:30.428Z,9.10
2017-11-07T16:02:58.688Z,9.10
2017-11-07T16:05:26.953Z,9.10
2017-11-07T16:07:55.176Z,9.10
2017-11-07T16:10:22.645Z,9.10
2017-11-07T16:12:50.105Z,9.00
2017-11-07T16:15:18.356Z,9.00
2017-11-07T16:17:46.613Z,9.10
2017-11-07T16:20:14.841Z,9.10
2017-11-07T16:22:42.301Z,9.10
2017-11-07T16:25:09.840Z,9.10
2017-11-07T16:27:38.811Z,9.10
2017-11-07T16:30:06.377Z,9.10
2017-11-07T16:32:33.964Z,9.10
2017-11-07T16:35:01.428Z,9.10
2017-11-07T16:37:30.030Z,9.10
2017-11-07T16:39:57.493Z,9.10
2017-11-07T16:42:25.734Z,9.10
2017-11-07T16:44:53.997Z,9.10
2017-11-07T16:47:22.255Z,9.10
2017-11-07T16:49:50.484Z,9.10
2017-11-07T16:52:18.146Z,9.00
2017-11-07T16:54:45.604Z,9.10
2017-11-07T16:57:13.833Z,9.10
2017-11-07T16:59:41.314Z,9.00
2017-11-07T17:02:09.537Z,9.10
2017-11-07T17:04:36.997Z,9.00
2017-11-07T17:07:04.465Z,9.00
2017-11-07T17:09:31.940Z,9.00
2017-11-07T17:11:59.428Z,9.00
2017-11-07T17:14:27.688Z,9.00
2017-11-07T17:16:56.044Z,9.10
2017-11-07T17:19:23.497Z,9.10
2017-11-07T17:21:51.761Z,9.10
2017-11-07T17:24:20.085Z,9.10
2017-11-07T17:26:47.557Z,9.10
2017-11-07T17:29:15.812Z,9.10
2017-11-07T17:31:43.369Z,9.10
2017-11-07T17:34:11.630Z,9.10
2017-11-07T17:36:39.884Z,9.00
2017-11-07T17:39:08.113Z,9.00
2017-11-07T17:41:35.685Z,9.00
2017-11-07T17:44:03.911Z,8.90
2017-11-07T17:46:31.484Z,8.90
2017-11-07T17:48:59.753Z,8.90
2017-11-07T17:51:28.001Z,8.90
2017-11-07T17:53:56.233Z,8.80
2017-11-07T17:56:23.688Z,8.80
2017-11-07T17:58:51.255Z,8.90
2017-11-07T18:01:19.481Z,8.90
2017-11-07T18:03:46.954Z,8.80
2017-11-07T18:06:15.192Z,8.80
2017-11-07T18:08:42.664Z,8.80
2017-11-07T18:11:10.920Z,8.80
2017-11-07T18:13:39.145Z,8.80
2017-11-07T18:16:06.601Z,8.80
2017-11-07T18:18:34.092Z,8.80
2017-11-07T18:21:01.552Z,8.80
2017-11-07T18:23:29.012Z,8.80
2017-11-07T18:25:56.694Z,8.70
2017-11-07T18:28:24.944Z,8.70
2017-11-07T18:30:53.204Z,8.60
2017-11-07T18:33:21.464Z,8.60
2017-11-07T18:35:49.722Z,8.60
2017-11-07T18:38:17.985Z,8.60
2017-11-07T18:40:46.221Z,8.50
2017-11-07T18:43:13.789Z,8.60
2017-11-07T18:45:42.045Z,8.50
2017-11-07T18:48:09.515Z,8.50
2017-11-07T18:50:36.980Z,8.60
2017-11-07T18:53:04.444Z,8.60
2017-11-07T18:55:31.925Z,8.60
2017-11-07T18:58:00.609Z,8.60
2017-11-07T19:00:28.064Z,8.60
2017-11-07T19:02:55.568Z,8.60
2017-11-07T19:05:23.837Z,8.60
2017-11-07T19:07:52.088Z,8.60
2017-11-07T19:10:20.353Z,8.60
2017-11-07T19:12:48.616Z,8.60
2017-11-07T19:15:16.848Z,8.60
2017-11-07T19:17:44.308Z,8.50
2017-11-07T19:20:12.545Z,8.50
2017-11-07T19:22:40.012Z,8.50
2017-11-07T19:25:07.564Z,8.60
2017-11-07T19:27:35.871Z,8.60
2017-11-07T19:30:03.329Z,8.50
2017-11-07T19:32:30.900Z,8.60
2017-11-07T19:34:59.169Z,8.60
2017-11-07T19:37:27.421Z,8.60
2017-11-07T19:39:55.664Z,8.60
2017-11-07T19:42:23.133Z,8.60
2017-11-07T19:44:51.388Z,8.50
2017-11-07T19:47:19.864Z,8.60
2017-11-07T19:49:48.117Z,8.50
2017-11-07T19:52:16.341Z,8.50
2017-11-07T19:54:43.819Z,8.50
2017-11-07T19:57:12.048Z,8.40
2017-11-07T19:59:39.513Z,8.40
2017-11-07T20:02:07.755Z,8.20
2017-11-07T20:04:35.321Z,8.20
2017-11-07T20:07:03.548Z,8.00
2017-11-07T20:09:31.121Z,8.00
2017-11-07T20:11:59.348Z,7.80
2017-11-07T20:14:26.836Z,7.80
2017-11-07T20:16:55.063Z,7.60
2017-11-07T20:19:22.533Z,7.60
2017-11-07T20:21:50.775Z,7.60
2017-11-07T20:24:18.330Z,7.50
2017-11-07T20:26:46.594Z,7.40
2017-11-07T20:29:14.857Z,7.40
2017-11-07T20:31:43.101Z,7.40
2017-11-07T20:34:10.653Z,7.30
2017-11-07T20:36:38.937Z,7.30
2017-11-07T20:39:06.394Z,7.30
2017-11-07T20:41:33.878Z,7.30
2017-11-07T20:44:01.346Z,7.30
2017-11-07T20:46:29.582Z,7.20
2017-11-07T20:48:57.143Z,7.20
2017-11-07T20:51:25.374Z,7.20
2017-11-07T20:53:52.848Z,7.10
2017-11-07T20:56:21.100Z,7.10
2017-11-07T20:58:48.559Z,7.00
2017-11-07T21:01:16.784Z,7.00
2017-11-07T21:03:44.248Z,7.00
2017-11-07T21:06:12.504Z,6.90
2017-11-07T21:08:40.728Z,6.90
2017-11-07T21:11:08.217Z,6.80
2017-11-07T21:13:36.468Z,6.80
2017-11-07T21:16:04.733Z,6.80
2017-11-07T21:18:32.988Z,6.70
2017-11-07T21:21:01.225Z,6.70
2017-11-07T21:23:28.692Z,6.70
2017-11-07T21:25:56.929Z,6.70
2017-11-07T21:28:24.393Z,6.70
2017-11-07T21:30:52.841Z,6.70
2017-11-07T21:33:20.301Z,6.60
2017-11-07T21:35:48.557Z,6.70
2017-11-07T21:38:16.794Z,6.70
2017-11-07T21:40:44.260Z,6.80
2017-11-07T21:43:12.505Z,6.90
2017-11-07T21:45:40.060Z,6.80
2017-11-07T21:48:08.285Z,7.00
2017-11-07T21:50:35.773Z,6.90
2017-11-07T21:53:04.028Z,7.00
2017-11-07T21:55:32.256Z,7.00
2017-11-07T21:57:59.829Z,7.00
2017-11-07T22:00:28.084Z,7.00
2017-11-07T22:02:56.309Z,7.00
2017-11-07T22:05:23.776Z,7.00
2017-11-07T22:07:51.246Z,7.00
2017-11-07T22:10:19.481Z,6.90
2017-11-07T22:12:47.037Z,6.90
2017-11-07T22:15:15.293Z,6.80
2017-11-07T22:17:46.120Z,6.80
2017-11-07T22:20:14.372Z,6.70
2017-11-07T22:22:45.185Z,6.70
2017-11-07T22:25:27.238Z,6.70
2017-11-07T22:27:54.766Z,6.60
2017-11-07T22:30:23.032Z,6.50
2017-11-07T22:32:51.255Z,6.40
2017-11-07T22:35:18.720Z,6.40
2017-11-07T22:37:46.952Z,6.40
2017-11-07T22:40:14.524Z,6.30
2017-11-07T22:42:42.792Z,6.30
2017-11-07T22:45:11.013Z,6.40
2017-11-07T22:47:38.492Z,6.30
2017-11-07T22:50:06.753Z,6.30
2017-11-07T22:52:34.985Z,6.30
2017-11-07T22:55:02.437Z,6.30
2017-11-07T22:57:29.909Z,6.30
2017-11-07T22:59:57.436Z,6.30
2017-11-07T23:02:25.792Z,6.30
2017-11-07T23:04:53.344Z,6.30
2017-11-07T23:07:21.605Z,6.30
2017-11-07T23:09:49.861Z,6.30
2017-11-07T23:12:18.125Z,6.40
2017-11-07T23:14:46.387Z,6.40
2017-11-07T23:17:14.645Z,6.40
2017-11-07T23:19:42.877Z,6.50
2017-11-07T23:22:10.539Z,6.50
2017-11-07T23:24:38.001Z,6.50
2017-11-07T23:27:06.228Z,6.60
2017-11-07T23:29:34.483Z,6.60
2017-11-07T23:32:01.981Z,6.60
2017-11-07T23:34:29.441Z,6.60
2017-11-07T23:36:56.938Z,6.60
2017-11-07T23:39:25.168Z,6.70
2017-11-07T23:41:52.654Z,6.60
2017-11-07T23:44:20.899Z,6.70
2017-11-07T23:46:49.165Z,6.80
2017-11-07T23:49:17.430Z,6.80
2017-11-07T23:51:45.776Z,6.80
2017-11-07T23:54:14.037Z,6.90
2017-11-07T23:56:42.300Z,6.90
2017-11-07T23:59:10.560Z,7.00
